Time;durP1;ratioP1;P1;durP2;ratioP2;P2;SDS_P1;SDS_P2;PMS_P1;PMS_P2;Temp;Humidity;BMP_temperature;BMP_pressure;BME280_temperature;BME280_humidity;BME280_pressure;Samples;Min_cycle;Max_cycle;Signal;HPM_P1;HPM_P2
2022/03/02 05:15:48;;;;;;;24.95;11.20;;;;;;;-3.52;64.42;101233.84;5560926;32;186982;-81
2022/03/02 05:18:51;;;;;;;21.23;11.00;;;;;;;-3.63;65.35;101237.91;5546413;32;34359;-82
2022/03/02 05:21:53;;;;;;;26.30;12.30;;;;;;;-3.68;65.42;101240.41;5546492;32;34066;-82
2022/03/02 05:24:56;;;;;;;32.70;11.75;;;;;;;-3.64;65.77;101245.69;5546836;32;34524;-81
2022/03/02 05:28:00;;;;;;;25.75;11.93;;;;;;;-3.63;65.67;101250.03;5546631;32;34635;-82
2022/03/02 05:31:03;;;;;;;28.08;12.57;;;;;;;-3.71;66.80;101250.72;5546452;32;34035;-82
2022/03/02 05:34:06;;;;;;;26.25;13.25;;;;;;;-3.70;67.12;101246.41;5547810;32;34162;-82
2022/03/02 05:37:09;;;;;;;24.12;12.35;;;;;;;-3.80;67.42;101237.53;5547442;32;34070;-82
2022/03/02 05:40:16;;;;;;;23.15;12.18;;;;;;;-3.86;67.98;101246.06;5549502;32;34043;-82
2022/03/02 05:43:25;;;;;;;29.73;12.32;;;;;;;-3.81;67.38;101246.16;5549927;32;34226;-86
2022/03/02 05:46:28;;;;;;;24.95;12.85;;;;;;;-3.80;67.52;101242.72;5547997;32;34058;-87
2022/03/02 05:49:31;;;;;;;22.50;11.63;;;;;;;-3.75;67.59;101242.81;5545549;32;34354;-83
2022/03/02 05:52:34;;;;;;;30.55;12.45;;;;;;;-3.46;66.29;101240.91;5547050;32;33656;-82
2022/03/02 05:55:37;;;;;;;27.23;11.95;;;;;;;-3.46;66.73;101238.31;5551317;32;34792;-82
2022/03/02 05:58:39;;;;;;;26.33;11.15;;;;;;;-3.35;66.20;101235.94;5550548;32;33644;-82
2022/03/02 06:01:44;;;;;;;23.25;11.65;;;;;;;-3.20;65.44;101234.50;5549744;32;34487;-82
2022/03/02 06:04:48;;;;;;;26.40;12.30;;;;;;;-3.04;65.63;101239.19;5546768;32;34082;-82
2022/03/02 06:07:50;;;;;;;27.00;12.63;;;;;;;-2.94;65.27;101241.94;5535864;32;34562;-82
2022/03/02 06:10:53;;;;;;;25.88;11.77;;;;;;;-2.90;65.92;101236.87;5544799;32;33782;-82
2022/03/02 06:13:56;;;;;;;21.37;10.68;;;;;;;-2.86;65.37;101237.78;5546872;32;33626;-82
2022/03/02 06:16:59;;;;;;;21.50;11.88;;;;;;;-2.81;65.31;101235.28;5536329;32;33979;-83
2022/03/02 06:20:02;;;;;;;26.23;11.65;;;;;;;-2.53;64.45;101233.22;5538675;32;33978;-82
2022/03/02 06:23:10;;;;;;;23.52;11.98;;;;;;;-2.44;64.31;101234.25;5533856;32;34076;-83
2022/03/02 06:26:13;;;;;;;31.58;12.15;;;;;;;-2.36;63.74;101236.09;5525897;32;34140;-82
2022/03/02 06:29:16;;;;;;;22.23;11.35;;;;;;;-2.11;62.76;101244.31;5519676;32;33985;-82
2022/03/02 06:32:19;;;;;;;25.00;11.43;;;;;;;-2.05;61.87;101244.44;5519186;32;33908;-83
2022/03/02 06:35:21;;;;;;;24.45;11.73;;;;;;;-2.02;61.51;101241.84;5517101;32;33561;-83
2022/03/02 06:38:24;;;;;;;27.98;12.75;;;;;;;-1.95;61.24;101243.72;5527179;32;34040;-81
2022/03/02 06:41:44;;;;;;;29.20;13.25;;;;;;;-1.86;60.59;101245.56;5521486;32;34226;-84
2022/03/02 06:44:54;;;;;;;23.98;10.50;;;;;;;-1.69;60.41;101240.66;5515330;32;34358;-81
2022/03/02 06:48:09;;;;;;;21.75;11.40;;;;;;;-1.49;58.50;101230.50;5529376;32;33578;-81
2022/03/02 06:51:15;;;;;;;27.15;12.30;;;;;;;-1.34;58.06;101228.09;5525765;32;34228;-83
2022/03/02 06:54:24;;;;;;;29.63;13.07;;;;;;;-1.31;58.51;101226.41;5524165;32;33870;-84
2022/03/02 06:57:28;;;;;;;34.95;14.35;;;;;;;-1.15;58.61;101219.66;5520193;32;33621;-82
2022/03/02 07:00:32;;;;;;;25.70;13.35;;;;;;;-1.03;58.33;101216.34;5527366;32;34699;-84
2022/03/02 07:03:47;;;;;;;26.33;12.73;;;;;;;-0.97;58.26;101221.62;5526399;32;33628;-84
2022/03/02 07:06:51;;;;;;;23.98;12.18;;;;;;;-0.81;57.72;101219.19;5514881;32;34689;-84
2022/03/02 07:09:55;;;;;;;20.73;11.25;;;;;;;-0.66;58.05;101210.66;5519687;32;33920;-83
2022/03/02 07:13:04;;;;;;;28.00;11.25;;;;;;;-0.45;57.53;101217.81;5521598;32;34527;-89
2022/03/02 07:16:06;;;;;;;20.12;10.45;;;;;;;-0.30;55.57;101211.88;5519820;32;33766;-85
2022/03/02 07:19:10;;;;;;;20.45;10.38;;;;;;;-0.14;54.42;101217.22;5531057;32;33972;-82
2022/03/02 07:22:17;;;;;;;17.05;8.95;;;;;;;0.14;52.85;101209.59;5523357;32;33571;-82
2022/03/02 07:25:33;;;;;;;16.50;8.57;;;;;;;0.36;50.87;101207.13;5533929;32;34793;-85
2022/03/02 07:28:39;;;;;;;17.62;8.60;;;;;;;0.72;49.66;101202.97;5524554;32;34800;-84
2022/03/02 07:31:43;;;;;;;18.00;7.70;;;;;;;1.35;48.20;101193.56;5513772;32;34184;-81
2022/03/02 07:35:00;;;;;;;16.75;7.97;;;;;;;2.06;46.09;101195.34;5525682;32;33529;-82
2022/03/02 07:38:07;;;;;;;14.65;7.40;;;;;;;3.69;42.49;101191.12;5522147;32;34476;-82
2022/03/02 07:41:10;;;;;;;14.05;7.47;;;;;;;6.60;36.04;101181.00;5524437;32;33845;-82
2022/03/02 07:44:13;;;;;;;15.55;7.85;;;;;;;7.23;32.94;101180.53;5520523;32;34792;-81
2022/03/02 07:47:18;;;;;;;18.60;7.87;;;;;;;7.80;32.05;101170.41;5539067;32;33887;-82
2022/03/02 07:50:23;;;;;;;17.55;7.97;;;;;;;8.04;31.42;101168.03;5528312;32;34304;-82
2022/03/02 07:53:33;;;;;;;15.43;7.75;;;;;;;10.34;28.79;101166.25;5513486;32;33749;-82
2022/03/02 07:56:36;;;;;;;12.65;7.90;;;;;;;10.98;26.92;101153.31;5528755;32;32542;-82
2022/03/02 07:59:41;;;;;;;12.93;7.80;;;;;;;11.08;25.90;101150.28;5523613;32;34695;-83
2022/03/02 08:02:47;;;;;;;15.05;8.85;;;;;;;12.54;25.22;101142.37;5523024;32;33991;-83
2022/03/02 08:05:57;;;;;;;14.43;8.15;;;;;;;14.24;22.02;101142.13;5526730;32;33859;-82
2022/03/02 08:09:02;;;;;;;11.82;8.15;;;;;;;15.08;21.87;101134.09;5523825;32;34788;-83
2022/03/02 08:12:07;;;;;;;16.10;7.78;;;;;;;13.86;21.59;101134.34;5514609;32;33822;-82
2022/03/02 08:15:10;;;;;;;14.25;8.23;;;;;;;17.81;18.54;101134.31;5523884;32;33933;-82
2022/03/02 08:18:14;;;;;;;15.82;8.55;;;;;;;19.46;17.40;101129.84;5535524;32;34082;-82
2022/03/02 08:21:31;;;;;;;12.40;8.48;;;;;;;22.21;14.52;101136.59;5528160;32;34392;-82
2022/03/02 08:24:38;;;;;;;10.63;7.78;;;;;;;22.43;14.16;101130.16;5518339;32;34077;-83
2022/03/02 08:27:44;;;;;;;10.85;7.55;;;;;;;23.90;13.36;101117.84;5524194;32;33812;-87
2022/03/02 08:30:51;;;;;;;24.85;8.60;;;;;;;24.29;12.81;101119.56;5513005;32;33823;-88
2022/03/02 08:33:55;;;;;;;16.25;8.07;;;;;;;24.42;12.39;101110.25;5512924;32;34854;-84
2022/03/02 08:36:59;;;;;;;10.60;7.07;;;;;;;24.25;12.72;101107.34;5523577;32;34321;-83
2022/03/02 08:40:04;;;;;;;10.10;6.05;;;;;;;22.56;13.22;101116.44;5517508;32;33862;-83
2022/03/02 08:43:07;;;;;;;8.65;6.30;;;;;;;18.98;15.77;101115.41;5534003;32;34208;-84
2022/03/02 08:46:11;;;;;;;11.12;5.82;;;;;;;20.43;14.83;101116.09;5527919;32;34147;-84
2022/03/02 08:49:16;;;;;;;8.40;6.12;;;;;;;23.58;12.70;101107.31;5515188;32;34670;-84
2022/03/02 08:52:24;;;;;;;11.05;6.93;;;;;;;23.69;12.24;101108.00;5532944;32;33901;-84
2022/03/02 08:55:31;;;;;;;9.00;6.40;;;;;;;23.45;12.44;101096.78;5533808;32;34108;-84
2022/03/02 08:58:36;;;;;;;9.05;6.43;;;;;;;24.06;12.25;101092.81;5531993;32;33850;-85
2022/03/02 09:01:43;;;;;;;9.35;6.40;;;;;;;24.14;12.51;101096.69;5529227;32;33949;-84
2022/03/02 09:04:48;;;;;;;9.05;6.95;;;;;;;15.52;17.87;101096.84;5528986;32;34229;-83
2022/03/02 09:07:50;;;;;;;11.27;6.62;;;;;;;17.02;17.71;101094.81;5528837;32;33813;-83
2022/03/02 09:10:57;;;;;;;10.77;6.97;;;;;;;18.56;16.27;101086.19;5520341;32;35268;-84
2022/03/02 09:14:03;;;;;;;11.02;7.32;;;;;;;16.31;17.61;101086.78;5513601;32;33895;-83
2022/03/02 09:17:06;;;;;;;11.50;7.68;;;;;;;12.34;21.64;101091.88;5533620;32;34814;-83
2022/03/02 09:20:10;;;;;;;11.85;7.47;;;;;;;11.88;22.69;101095.63;5531496;32;33735;-83
2022/03/02 09:23:15;;;;;;;10.80;7.15;;;;;;;11.78;23.02;101092.53;5536488;32;34388;-83
2022/03/02 09:26:19;;;;;;;13.75;7.45;;;;;;;10.54;24.58;101084.22;5517934;32;34241;-83
2022/03/02 09:29:25;;;;;;;12.15;7.18;;;;;;;10.51;24.69;101080.78;5527840;32;34078;-83
2022/03/02 09:32:33;;;;;;;10.95;7.40;;;;;;;10.55;24.68;101080.69;5520725;32;34572;-83
2022/03/02 09:35:36;;;;;;;11.07;7.75;;;;;;;10.90;23.80;101081.94;5515555;32;34487;-84
2022/03/02 09:38:40;;;;;;;12.77;8.07;;;;;;;10.71;25.19;101076.47;5528942;32;33783;-83
2022/03/02 09:41:58;;;;;;;13.73;7.97;;;;;;;10.29;24.50;101072.75;5528759;32;34526;-84
2022/03/02 09:45:07;;;;;;;11.25;7.72;;;;;;;9.03;25.76;101067.34;5529692;32;33948;-84
2022/03/02 09:48:27;;;;;;;14.00;7.68;;;;;;;8.65;27.17;101077.31;5528640;32;34370;-84
2022/03/02 09:51:32;;;;;;;13.77;8.27;;;;;;;8.88;25.99;101075.75;5524312;32;33760;-88
2022/03/02 09:54:44;;;;;;;14.55;8.00;;;;;;;9.55;24.98;101071.81;5524412;32;34630;-83
2022/03/02 09:57:50;;;;;;;16.05;8.27;;;;;;;10.08;24.77;101064.66;5532423;32;34492;-83
2022/03/02 10:00:55;;;;;;;12.70;7.85;;;;;;;10.07;25.07;101062.06;5525401;32;33813;-83
2022/03/02 10:04:13;;;;;;;12.55;8.20;;;;;;;11.23;23.53;101045.25;5527027;32;34652;-84
2022/03/02 10:07:28;;;;;;;15.90;8.05;;;;;;;10.13;24.21;101053.87;5533615;32;34075;-84
2022/03/02 10:10:36;;;;;;;13.32;7.43;;;;;;;10.15;24.38;101045.88;5531925;32;33730;-82
2022/03/02 10:13:39;;;;;;;13.25;7.87;;;;;;;10.48;23.58;101038.47;5533850;32;33765;-83
2022/03/02 10:16:45;;;;;;;12.02;7.03;;;;;;;10.76;24.75;101034.72;5544859;32;34742;-83
2022/03/02 10:20:10;;;;;;;11.27;7.00;;;;;;;11.22;23.69;101028.44;5535443;32;33782;-83
2022/03/02 10:23:28;;;;;;;9.65;7.20;;;;;;;11.26;25.11;101026.53;5539134;32;34114;-83
2022/03/02 10:26:35;;;;;;;11.27;7.07;;;;;;;11.98;24.30;101025.16;5539920;32;35178;-83
2022/03/02 10:29:54;;;;;;;13.40;7.37;;;;;;;12.63;23.29;101017.81;5543224;32;35786;-83
2022/03/02 10:33:12;;;;;;;11.98;6.97;;;;;;;13.36;21.63;101016.03;5539367;32;34489;-83
2022/03/02 10:36:16;;;;;;;11.75;7.25;;;;;;;13.11;22.28;101017.25;5533443;32;34475;-87
2022/03/02 10:39:48;;;;;;;11.15;6.93;;;;;;;13.59;21.07;101018.38;5532178;32;34204;-87
2022/03/02 10:42:55;;;;;;;12.70;6.65;;;;;;;13.04;20.19;101008.72;5520835;32;33747;-83
2022/03/02 10:46:01;;;;;;;12.13;7.45;;;;;;;13.22;20.47;101014.91;5520142;32;34059;-83
2022/03/02 10:49:08;;;;;;;10.07;7.00;;;;;;;11.90;22.19;101005.16;5542338;32;34436;-83
2022/03/02 10:52:14;;;;;;;10.20;7.25;;;;;;;11.73;21.79;101002.34;5537041;32;33903;-82
2022/03/02 10:55:17;;;;;;;11.25;7.32;;;;;;;10.72;22.47;100984.47;5523178;32;34160;-82
2022/03/02 10:58:20;;;;;;;10.13;6.87;;;;;;;12.51;21.08;100985.53;5537610;32;34624;-81
2022/03/02 11:01:23;;;;;;;11.93;6.55;;;;;;;16.17;17.91;100965.41;5539695;32;34682;-81
2022/03/02 11:04:29;;;;;;;10.27;6.50;;;;;;;14.23;18.95;100968.81;5534995;32;34749;-82
2022/03/02 11:07:35;;;;;;;12.65;6.95;;;;;;;14.49;19.41;100958.47;5549973;26;34522;-84
2022/03/02 11:10:40;;;;;;;11.10;6.90;;;;;;;12.78;20.12;100965.63;5542546;32;33625;-84
2022/03/02 11:13:45;;;;;;;10.88;7.22;;;;;;;10.83;21.95;100973.41;5542406;32;32487;-85
2022/03/02 11:16:50;;;;;;;12.20;7.05;;;;;;;10.43;22.54;100966.16;5535208;32;34859;-84
2022/03/02 11:19:57;;;;;;;10.82;6.75;;;;;;;9.60;23.61;100965.69;5540991;32;33418;-85
2022/03/02 11:23:05;;;;;;;13.30;7.37;;;;;;;10.90;22.15;100954.53;5536080;32;32393;-90
2022/03/02 11:26:12;;;;;;;11.57;7.30;;;;;;;12.71;20.23;100948.25;5534758;32;34767;-84
2022/03/02 11:29:17;;;;;;;10.40;7.15;;;;;;;12.66;20.24;100940.44;5548916;32;33846;-85
2022/03/02 11:32:25;;;;;;;9.60;6.53;;;;;;;10.65;21.83;100928.13;5534902;32;34190;-84
2022/03/02 11:35:36;;;;;;;10.82;7.22;;;;;;;11.55;21.88;100924.31;5545063;32;34157;-85
2022/03/02 11:38:43;;;;;;;8.13;6.10;;;;;;;10.68;22.18;100927.16;5547534;32;35230;-85
2022/03/02 11:41:49;;;;;;;11.90;6.53;;;;;;;9.83;23.31;100921.59;5558809;32;35325;-86
2022/03/02 11:44:55;;;;;;;10.65;6.82;;;;;;;10.56;25.05;100908.16;5547987;32;34208;-85
2022/03/02 11:47:58;;;;;;;12.15;6.75;;;;;;;10.81;24.12;100920.41;5541197;32;35191;-85
2022/03/02 11:51:04;;;;;;;10.88;6.97;;;;;;;13.25;22.82;100913.53;5541543;32;33875;-86
2022/03/02 11:54:09;;;;;;;12.27;7.00;;;;;;;11.61;22.15;100907.22;5542745;32;33976;-86
2022/03/02 11:57:13;;;;;;;10.45;6.95;;;;;;;10.67;22.39;100907.72;5543661;32;32261;-86
2022/03/02 12:00:18;;;;;;;11.52;6.85;;;;;;;10.09;23.43;100899.38;5543990;32;33923;-85
2022/03/02 12:03:21;;;;;;;11.10;6.85;;;;;;;9.94;23.60;100899.97;5546810;32;34126;-86
2022/03/02 12:06:26;;;;;;;13.48;7.47;;;;;;;10.21;23.43;100891.88;5543333;32;34086;-87
2022/03/02 12:09:35;;;;;;;12.65;7.12;;;;;;;9.89;23.55;100891.31;5539521;32;34302;-86
2022/03/02 12:12:40;;;;;;;11.23;7.05;;;;;;;10.20;23.52;100890.13;5540095;32;34308;-85
2022/03/02 12:15:52;;;;;;;9.93;6.53;;;;;;;9.83;23.40;100882.72;5541834;32;34511;-86
2022/03/02 12:18:56;;;;;;;12.60;7.20;;;;;;;9.74;23.97;100875.09;5540574;32;34179;-85
2022/03/02 12:22:10;;;;;;;8.45;6.22;;;;;;;9.82;24.52;100873.00;5540045;32;34142;-85
2022/03/02 12:25:15;;;;;;;10.48;7.12;;;;;;;9.74;24.49;100869.81;5535408;32;32972;-85
2022/03/02 12:28:23;;;;;;;13.50;7.40;;;;;;;9.22;25.09;100868.19;5541733;32;34530;-85
2022/03/02 12:31:31;;;;;;;11.90;6.97;;;;;;;9.71;24.85;100854.88;5541701;32;34279;-85
2022/03/02 12:34:43;;;;;;;13.30;7.10;;;;;;;9.88;24.55;100856.03;5536102;32;33947;-86
2022/03/02 12:37:46;;;;;;;9.90;6.57;;;;;;;9.86;24.60;100852.56;5533453;32;33859;-91
2022/03/02 12:40:49;;;;;;;12.57;7.35;;;;;;;9.20;25.42;100856.78;5534876;32;33751;-89
2022/03/02 12:43:52;;;;;;;12.30;7.18;;;;;;;9.35;25.24;100852.72;5533431;32;34042;-86
2022/03/02 12:47:30;;;;;;;11.82;7.12;;;;;;;9.43;24.94;100849.78;5529302;32;34689;-85
2022/03/02 12:50:37;;;;;;;9.95;6.43;;;;;;;9.55;24.68;100838.72;5548390;32;34284;-86
2022/03/02 12:53:41;;;;;;;11.48;6.53;;;;;;;9.47;25.51;100835.50;5539290;32;34549;-87
2022/03/02 12:56:44;;;;;;;11.25;7.03;;;;;;;8.66;26.64;100835.75;5539467;32;33926;-87
2022/03/02 12:59:47;;;;;;;13.15;7.50;;;;;;;8.45;26.60;100838.16;5534477;32;34248;-86
2022/03/02 13:02:55;;;;;;;11.32;7.03;;;;;;;8.46;26.75;100826.66;5535754;32;35235;-85
2022/03/02 13:06:08;;;;;;;10.90;6.82;;;;;;;8.45;27.02;100814.34;5540893;32;33603;-85
2022/03/02 13:09:18;;;;;;;10.95;7.10;;;;;;;8.49;27.49;100818.62;5547197;32;33938;-87
2022/03/02 13:12:31;;;;;;;16.20;7.53;;;;;;;8.93;26.33;100821.59;5533928;32;34126;-87
2022/03/02 13:15:38;;;;;;;16.20;8.18;;;;;;;8.30;27.77;100810.44;5530878;32;33884;-86
2022/03/02 13:18:40;;;;;;;12.32;7.97;;;;;;;8.72;27.79;100810.84;5537977;32;34034;-86
2022/03/02 13:21:57;;;;;;;15.20;8.00;;;;;;;8.62;28.64;100797.94;5537411;32;33936;-87
2022/03/02 13:25:10;;;;;;;16.50;8.50;;;;;;;8.54;28.59;100789.41;5533313;32;33563;-85
2022/03/02 13:28:13;;;;;;;14.27;8.32;;;;;;;8.36;28.49;100788.25;5538554;32;33619;-86
2022/03/02 13:31:18;;;;;;;11.23;7.70;;;;;;;8.66;28.27;100784.62;5551232;32;33232;-87
2022/03/02 13:34:32;;;;;;;13.60;8.50;;;;;;;8.75;28.21;100784.31;5549646;32;33800;-88
2022/03/02 13:37:54;;;;;;;15.38;8.68;;;;;;;8.35;28.63;100781.25;5546845;32;33917;-91
2022/03/02 13:40:57;;;;;;;15.27;7.93;;;;;;;8.46;28.63;100775.56;5542855;32;34661;-87
2022/03/02 13:44:38;;;;;;;13.35;7.60;;;;;;;8.66;27.93;100772.28;5541770;32;33973;-87
2022/03/02 13:47:41;;;;;;;;;;;;;;;8.41;28.35;100772.22;5541975;32;34117;-87
2022/03/02 13:51:04;;;;;;;10.73;7.47;;;;;;;8.36;28.65;100770.59;5541001;32;34053;-86
2022/03/02 13:54:07;;;;;;;14.43;8.32;;;;;;;8.40;28.64;100760.75;5547726;32;33973;-86
2022/03/02 13:57:20;;;;;;;15.82;8.73;;;;;;;8.29;29.29;100762.94;5552980;32;34209;-85
2022/03/02 14:00:27;;;;;;;14.25;7.80;;;;;;;8.29;29.21;100765.59;5546980;32;34820;-85
2022/03/02 14:03:33;;;;;;;12.27;7.93;;;;;;;8.12;29.34;100756.44;5540316;32;34268;-85
2022/03/02 14:06:42;;;;;;;13.00;7.95;;;;;;;8.27;29.18;100760.34;5538062;32;34373;-86
2022/03/02 14:09:45;;;;;;;13.52;7.68;;;;;;;7.93;29.74;100751.75;5536116;32;34711;-85
2022/03/02 14:12:57;;;;;;;17.52;8.85;;;;;;;8.14;29.70;100746.66;5549876;32;34212;-88
2022/03/02 14:16:05;;;;;;;14.07;7.78;;;;;;;8.41;29.13;100746.66;5555150;32;35973;-88
2022/03/02 14:19:14;;;;;;;14.75;8.30;;;;;;;8.14;29.46;100751.94;5555539;32;34266;-87
2022/03/02 14:22:20;;;;;;;14.60;8.00;;;;;;;8.19;29.50;100743.88;5555430;32;34299;-91
2022/03/02 14:25:23;;;;;;;15.82;8.00;;;;;;;8.34;29.67;100746.00;5553330;32;34127;-92
2022/03/02 14:28:25;;;;;;;16.08;8.70;;;;;;;7.86;29.96;100750.25;5535418;32;34250;-92
2022/03/02 14:31:28;;;;;;;12.77;7.70;;;;;;;8.01;29.90;100748.87;5535481;32;34037;-87
2022/03/02 14:35:05;;;;;;;14.60;8.48;;;;;;;7.66;30.61;100740.31;5542067;32;34293;-86
2022/03/02 14:38:09;;;;;;;14.57;8.50;;;;;;;7.57;31.17;100743.22;5514122;32;34312;-87
2022/03/02 14:41:26;;;;;;;15.30;8.60;;;;;;;7.70;31.07;100741.94;5557440;32;34702;-86
2022/03/02 14:44:29;;;;;;;19.87;9.07;;;;;;;8.02;30.88;100734.75;5558558;32;34383;-87
2022/03/02 14:47:33;;;;;;;18.40;9.48;;;;;;;7.78;31.29;100734.63;5553143;32;34199;-87
2022/03/02 14:50:46;;;;;;;14.70;8.82;;;;;;;7.99;31.28;100734.84;5551872;32;34817;-87
2022/03/02 14:53:49;;;;;;;16.85;9.30;;;;;;;8.00;31.29;100733.06;5551773;32;33998;-86
2022/03/02 14:56:51;;;;;;;16.48;9.30;;;;;;;7.79;31.52;100743.41;5553953;32;33979;-86
2022/03/02 14:59:54;;;;;;;15.43;9.27;;;;;;;7.60;31.84;100736.06;5556335;32;34017;-85
2022/03/02 15:02:58;;;;;;;17.42;8.75;;;;;;;7.65;31.56;100730.66;5557538;32;33847;-86
2022/03/02 15:06:12;;;;;;;17.23;9.68;;;;;;;7.80;31.59;100731.94;5552964;32;34097;-86
2022/03/02 15:09:15;;;;;;;18.20;9.80;;;;;;;7.84;31.89;100732.72;5553200;32;34013;-86
2022/03/02 15:12:30;;;;;;;22.50;10.27;;;;;;;7.43;32.62;100730.47;5554280;32;33740;-88
2022/03/02 15:15:34;;;;;;;23.67;9.90;;;;;;;7.52;32.77;100730.16;5552712;32;35310;-87
2022/03/02 15:18:59;;;;;;;16.67;9.35;;;;;;;7.58;32.35;100724.69;5554003;32;34938;-88
2022/03/02 15:22:09;;;;;;;20.42;9.65;;;;;;;7.04;33.22;100718.44;5556089;32;33849;-89
2022/03/02 15:25:12;;;;;;;21.13;9.83;;;;;;;7.17;33.21;100713.62;5565580;32;34894;-88
2022/03/02 15:28:17;;;;;;;20.02;9.98;;;;;;;7.03;33.56;100714.91;5553968;32;34720;-87
2022/03/02 15:31:20;;;;;;;18.05;9.63;;;;;;;6.85;34.01;100708.41;5552537;32;34112;-89
2022/03/02 15:34:26;;;;;;;20.05;10.20;;;;;;;6.74;34.24;100712.22;5552818;32;33899;-87
2022/03/02 15:37:34;;;;;;;17.37;9.30;;;;;;;6.64;34.69;100721.28;5554757;32;33943;-87
2022/03/02 15:40:38;;;;;;;20.08;10.27;;;;;;;6.62;34.58;100707.28;5554869;32;34097;-86
2022/03/02 15:43:41;;;;;;;17.30;9.82;;;;;;;6.53;34.66;100707.56;5555415;32;34416;-87
2022/03/02 15:46:49;;;;;;;15.68;9.80;;;;;;;6.62;34.60;100717.84;5554681;32;34182;-87
2022/03/02 15:49:52;;;;;;;18.80;10.73;;;;;;;6.36;35.33;100710.63;5553221;32;34255;-87
2022/03/02 15:52:57;;;;;;;18.92;10.75;;;;;;;6.04;35.86;100716.69;5549135;32;34096;-87
2022/03/02 15:56:10;;;;;;;18.20;10.88;;;;;;;6.11;35.99;100708.66;5553247;32;33961;-87
2022/03/02 15:59:21;;;;;;;19.70;11.32;;;;;;;6.04;36.20;100715.84;5540679;32;34070;-87
2022/03/02 16:02:33;;;;;;;18.77;11.35;;;;;;;5.84;36.72;100716.31;5535664;32;34055;-87
2022/03/02 16:05:42;;;;;;;23.52;11.77;;;;;;;5.71;36.97;100719.25;5535933;32;33890;-86
2022/03/02 16:08:45;;;;;;;18.87;10.52;;;;;;;5.55;37.81;100721.37;5537454;32;34612;-86
2022/03/02 16:11:51;;;;;;;21.20;12.80;;;;;;;5.62;37.91;100724.72;5540981;32;34326;-87
2022/03/02 16:14:54;;;;;;;18.25;10.80;;;;;;;5.54;38.10;100719.66;5533344;32;34214;-87
2022/03/02 16:17:57;;;;;;;19.98;11.40;;;;;;;5.48;38.35;100719.78;5534114;32;34252;-87
2022/03/02 16:21:23;;;;;;;19.15;11.00;;;;;;;5.44;38.59;100721.63;5535865;32;34369;-86
2022/03/02 16:24:27;;;;;;;19.73;11.07;;;;;;;5.24;39.04;100714.19;5534895;32;33449;-87
2022/03/02 16:27:30;;;;;;;23.15;11.07;;;;;;;5.09;39.48;100718.84;5534635;32;34246;-86
2022/03/02 16:30:33;;;;;;;19.65;11.43;;;;;;;4.98;39.85;100724.34;5534236;32;34435;-87
